createdAt,value
2019-02-28T00:01:27.243Z,14.40
2019-02-28T00:03:57.963Z,14.40
2019-02-28T00:06:25.393Z,14.30
2019-02-28T00:08:53.833Z,14.20
2019-02-28T00:11:22.415Z,14.20
2019-02-28T00:13:52.310Z,14.10
2019-02-28T00:16:20.809Z,14.10
2019-02-28T00:18:49.814Z,14.20
2019-02-28T00:21:18.453Z,14.20
2019-02-28T00:23:46.397Z,14.20
2019-02-28T00:26:14.363Z,14.10
2019-02-28T00:28:42.270Z,14.00
2019-02-28T00:31:14.212Z,13.90
2019-02-28T00:33:40.906Z,14.00
2019-02-28T00:36:08.850Z,14.00
2019-02-28T00:38:37.203Z,14.00
2019-02-28T00:41:05.291Z,14.00
2019-02-28T00:43:33.206Z,14.00
2019-02-28T00:46:01.428Z,13.90
2019-02-28T00:48:29.357Z,13.90
2019-02-28T00:50:58.532Z,13.90
2019-02-28T00:53:26.938Z,13.70
2019-02-28T00:55:55.363Z,13.70
2019-02-28T00:58:23.255Z,13.60
2019-02-28T01:00:51.462Z,13.60
2019-02-28T01:03:19.828Z,13.60
2019-02-28T01:05:48.050Z,13.60
2019-02-28T01:08:19.183Z,13.50
2019-02-28T01:10:46.828Z,13.40
2019-02-28T01:13:15.105Z,13.40
2019-02-28T01:15:44.835Z,13.40
2019-02-28T01:18:13.290Z,13.40
2019-02-28T01:20:41.245Z,13.30
2019-02-28T01:23:09.186Z,13.30
2019-02-28T01:25:39.925Z,13.30
2019-02-28T01:28:06.945Z,13.30
2019-02-28T01:30:37.058Z,13.30
2019-02-28T01:33:04.670Z,13.10
2019-02-28T01:35:32.891Z,13.10
2019-02-28T01:38:01.376Z,13.10
2019-02-28T01:40:29.327Z,13.10
2019-02-28T01:42:57.703Z,13.00
2019-02-28T01:45:25.551Z,13.00
2019-02-28T01:47:53.508Z,12.90
2019-02-28T01:50:21.523Z,12.80
2019-02-28T01:52:49.695Z,12.80
2019-02-28T01:55:17.766Z,12.70
2019-02-28T01:57:46.072Z,12.70
2019-02-28T02:00:14.671Z,12.70
2019-02-28T02:02:42.933Z,12.60
2019-02-28T02:05:10.936Z,12.70
2019-02-28T02:07:39.520Z,12.80
2019-02-28T02:10:13.519Z,12.80
2019-02-28T02:12:41.885Z,12.70
2019-02-28T02:15:10.031Z,12.70
2019-02-28T02:17:38.155Z,12.70
2019-02-28T02:20:07.043Z,12.60
2019-02-28T02:22:36.637Z,12.50
2019-02-28T02:25:05.615Z,12.40
2019-02-28T02:27:35.159Z,12.50
2019-02-28T02:30:03.270Z,12.50
2019-02-28T02:32:37.076Z,12.50
2019-02-28T02:35:06.277Z,12.50
2019-02-28T02:37:31.425Z,12.50
2019-02-28T02:39:59.758Z,12.50
2019-02-28T02:42:27.642Z,12.50
2019-02-28T02:44:55.667Z,12.50
2019-02-28T02:47:24.057Z,12.40
2019-02-28T02:49:57.563Z,12.40
2019-02-28T02:52:25.852Z,12.30
2019-02-28T02:54:53.121Z,12.40
2019-02-28T02:57:21.550Z,12.30
2019-02-28T02:59:49.552Z,12.10
2019-02-28T03:02:17.900Z,12.00
2019-02-28T03:04:46.283Z,12.00
2019-02-28T03:07:22.991Z,12.00
2019-02-28T03:09:44.901Z,12.00
2019-02-28T03:12:12.729Z,12.10
2019-02-28T03:14:41.184Z,12.10
2019-02-28T03:17:11.495Z,12.10
2019-02-28T03:19:39.961Z,12.00
2019-02-28T03:22:08.382Z,12.00
2019-02-28T03:24:36.812Z,12.00
2019-02-28T03:27:04.998Z,12.00
2019-02-28T03:29:32.994Z,11.90
2019-02-28T03:32:01.342Z,11.90
2019-02-28T03:34:29.276Z,11.90
2019-02-28T03:36:57.837Z,11.80
2019-02-28T03:39:26.006Z,11.80
2019-02-28T03:41:54.535Z,11.80
2019-02-28T03:44:22.836Z,11.80
2019-02-28T03:46:50.811Z,11.70
2019-02-28T03:49:19.154Z,11.70
2019-02-28T03:51:47.570Z,11.60
2019-02-28T03:54:15.451Z,11.60
2019-02-28T03:56:51.360Z,11.60
2019-02-28T03:59:18.204Z,11.60
2019-02-28T04:01:45.475Z,11.50
2019-02-28T04:04:13.493Z,11.50
2019-02-28T04:06:41.648Z,11.40
2019-02-28T04:09:09.562Z,11.40
2019-02-28T04:11:37.373Z,11.30
2019-02-28T04:14:05.339Z,11.40
2019-02-28T04:16:33.275Z,11.30
2019-02-28T04:19:01.136Z,11.30
2019-02-28T04:21:29.098Z,11.20
2019-02-28T04:23:56.994Z,11.30
2019-02-28T04:26:25.045Z,11.20
2019-02-28T04:28:54.727Z,11.20
2019-02-28T04:31:22.806Z,11.40
2019-02-28T04:33:50.674Z,11.30
2019-02-28T04:36:18.663Z,11.30
2019-02-28T04:38:46.709Z,11.20
2019-02-28T04:41:14.809Z,11.10
2019-02-28T04:43:44.369Z,11.10
2019-02-28T04:46:12.816Z,11.10
2019-02-28T04:48:40.673Z,11.10
2019-02-28T04:51:08.554Z,11.10
2019-02-28T04:53:36.413Z,11.00
2019-02-28T04:56:04.530Z,11.00
2019-02-28T04:58:32.395Z,10.90
2019-02-28T05:01:00.306Z,10.90
2019-02-28T05:03:29.203Z,10.80
2019-02-28T05:05:57.669Z,10.90
2019-02-28T05:08:25.588Z,10.80
2019-02-28T05:10:55.949Z,10.80
2019-02-28T05:13:23.635Z,10.80
2019-02-28T05:15:51.588Z,10.90
2019-02-28T05:18:19.525Z,10.90
2019-02-28T05:20:47.417Z,10.90
2019-02-28T05:23:15.295Z,10.80
2019-02-28T05:25:43.214Z,10.80
2019-02-28T05:28:11.266Z,10.90
2019-02-28T05:30:39.179Z,10.90
2019-02-28T05:33:07.500Z,10.80
2019-02-28T05:35:35.627Z,10.90
2019-02-28T05:38:03.492Z,10.90
2019-02-28T05:40:31.306Z,11.00
2019-02-28T05:42:59.264Z,11.00
2019-02-28T05:45:27.202Z,11.00
2019-02-28T05:47:55.142Z,10.90
2019-02-28T05:50:23.130Z,10.90
2019-02-28T05:52:51.584Z,10.90
2019-02-28T05:55:24.584Z,10.90
2019-02-28T05:57:49.718Z,10.90
2019-02-28T06:00:18.845Z,10.80
2019-02-28T06:02:46.731Z,10.90
2019-02-28T06:05:14.731Z,10.80
2019-02-28T06:07:42.718Z,10.80
2019-02-28T06:10:10.892Z,10.80
2019-02-28T06:12:40.453Z,10.70
2019-02-28T06:15:08.871Z,10.80
2019-02-28T06:17:37.506Z,10.80
2019-02-28T06:20:05.986Z,10.80
2019-02-28T06:22:36.328Z,10.80
2019-02-28T06:25:04.668Z,10.80
2019-02-28T06:27:41.043Z,10.70
2019-02-28T06:30:02.442Z,10.70
2019-02-28T06:32:30.344Z,10.80
2019-02-28T06:34:59.834Z,10.80
2019-02-28T06:37:28.487Z,10.80
2019-02-28T06:39:58.651Z,10.80
2019-02-28T06:42:26.413Z,10.80
2019-02-28T06:44:54.319Z,10.90
2019-02-28T06:47:22.264Z,10.90
2019-02-28T06:49:50.240Z,10.90
2019-02-28T06:52:18.087Z,10.80
2019-02-28T06:54:46.025Z,10.80
2019-02-28T06:57:14.082Z,10.80
2019-02-28T06:59:42.276Z,10.80
2019-02-28T07:02:10.212Z,10.90
2019-02-28T07:04:38.182Z,10.90
2019-02-28T07:07:07.348Z,10.80
2019-02-28T07:09:36.452Z,10.90
2019-02-28T07:12:05.159Z,10.80
2019-02-28T07:14:49.348Z,10.90
2019-02-28T07:17:17.578Z,10.90
2019-02-28T07:19:45.513Z,10.90
2019-02-28T07:22:19.191Z,10.90
2019-02-28T07:24:43.236Z,11.00
2019-02-28T07:27:11.125Z,11.00
2019-02-28T07:29:39.104Z,11.00
2019-02-28T07:32:07.050Z,11.00
2019-02-28T07:34:35.419Z,11.00
2019-02-28T07:37:03.268Z,11.00
2019-02-28T07:39:31.186Z,11.00
2019-02-28T07:42:02.308Z,11.10
2019-02-28T07:44:28.811Z,11.10
2019-02-28T07:46:56.670Z,11.10
2019-02-28T07:49:25.834Z,11.10
2019-02-28T07:51:56.970Z,11.10
2019-02-28T07:54:24.058Z,11.10
2019-02-28T07:56:52.030Z,11.10
2019-02-28T07:59:20.459Z,11.10
2019-02-28T08:01:50.743Z,11.20
2019-02-28T08:04:19.188Z,11.20
2019-02-28T08:06:47.314Z,11.20
2019-02-28T08:09:23.115Z,11.20
2019-02-28T08:11:51.578Z,11.20
2019-02-28T08:14:30.363Z,11.30
2019-02-28T08:16:58.271Z,11.30
2019-02-28T08:19:27.232Z,11.30
2019-02-28T08:21:55.934Z,11.30
2019-02-28T08:24:23.894Z,11.30
2019-02-28T08:26:53.503Z,11.40
2019-02-28T08:29:21.723Z,11.40
2019-02-28T08:31:49.730Z,11.30
2019-02-28T08:34:20.579Z,11.40
2019-02-28T08:36:47.594Z,11.40
2019-02-28T08:39:16.771Z,11.40
2019-02-28T08:41:44.707Z,11.50
2019-02-28T08:44:12.743Z,11.40
2019-02-28T08:46:43.512Z,11.50
2019-02-28T08:49:10.675Z,11.50
2019-02-28T08:51:38.594Z,11.50
2019-02-28T08:54:06.459Z,11.50
2019-02-28T08:56:34.381Z,11.60
2019-02-28T08:59:11.387Z,11.50
2019-02-28T09:01:32.191Z,11.60
2019-02-28T09:04:05.068Z,11.60
2019-02-28T09:06:29.986Z,11.60
2019-02-28T09:08:59.901Z,11.60
2019-02-28T09:11:27.815Z,11.60
2019-02-28T09:13:55.889Z,11.70
2019-02-28T09:16:23.774Z,11.60
2019-02-28T09:18:51.683Z,11.70
2019-02-28T09:21:19.658Z,11.70
2019-02-28T09:23:47.598Z,11.80
2019-02-28T09:26:15.643Z,11.80
2019-02-28T09:28:44.456Z,11.80
2019-02-28T09:31:13.334Z,11.70
2019-02-28T09:33:41.282Z,11.70
2019-02-28T09:36:09.202Z,11.70
2019-02-28T09:38:37.157Z,11.80
2019-02-28T09:41:05.447Z,11.80
2019-02-28T09:43:33.430Z,11.80
2019-02-28T09:46:01.503Z,11.80
2019-02-28T09:48:30.677Z,11.80
2019-02-28T09:50:59.184Z,11.90
2019-02-28T09:53:27.215Z,11.90
2019-02-28T09:55:55.105Z,11.80
2019-02-28T09:58:22.971Z,11.90
2019-02-28T10:00:51.013Z,11.90
2019-02-28T10:03:19.582Z,11.90
2019-02-28T10:05:47.571Z,11.90
2019-02-28T10:08:15.803Z,11.90
2019-02-28T10:10:43.665Z,11.90
2019-02-28T10:13:14.584Z,11.90
2019-02-28T10:15:42.479Z,11.90
2019-02-28T10:18:10.464Z,11.90
2019-02-28T10:20:38.480Z,11.80
2019-02-28T10:23:06.347Z,11.80
2019-02-28T10:25:34.247Z,11.80
2019-02-28T10:28:02.894Z,11.80
2019-02-28T10:30:32.410Z,11.80
2019-02-28T10:33:01.176Z,11.90
2019-02-28T10:35:29.242Z,11.80
2019-02-28T10:37:58.387Z,11.80
2019-02-28T10:40:27.339Z,11.80
2019-02-28T10:42:55.622Z,11.80
2019-02-28T10:45:24.031Z,11.80
2019-02-28T10:47:52.023Z,11.80
2019-02-28T10:50:21.691Z,11.80
2019-02-28T10:52:50.072Z,11.70
2019-02-28T10:55:19.469Z,11.70
2019-02-28T10:57:48.404Z,11.70
2019-02-28T11:00:20.189Z,11.80
2019-02-28T11:02:50.469Z,11.80
2019-02-28T11:05:22.496Z,11.90
2019-02-28T11:07:50.785Z,11.80
2019-02-28T11:10:19.339Z,11.80
2019-02-28T11:12:47.365Z,11.80
2019-02-28T11:15:37.886Z,11.80
2019-02-28T11:18:09.774Z,11.80
2019-02-28T11:20:35.963Z,11.80
2019-02-28T11:23:04.592Z,11.80
2019-02-28T11:25:35.575Z,11.80
2019-02-28T11:28:02.598Z,11.70
2019-02-28T11:30:30.788Z,11.70
2019-02-28T11:33:02.979Z,11.70
2019-02-28T11:35:29.578Z,11.70
2019-02-28T11:37:57.753Z,11.80
2019-02-28T11:40:27.642Z,11.80
2019-02-28T11:42:55.651Z,11.80
2019-02-28T11:45:25.496Z,11.80
2019-02-28T11:47:54.850Z,11.90
2019-02-28T11:50:23.234Z,11.90
2019-02-28T11:52:51.337Z,11.90
2019-02-28T11:55:20.378Z,11.80
2019-02-28T11:57:49.465Z,11.80
2019-02-28T12:00:20.287Z,11.80
2019-02-28T12:02:53.245Z,11.80
2019-02-28T12:05:18.495Z,11.90
2019-02-28T12:07:46.583Z,11.90
2019-02-28T12:10:14.523Z,12.00
2019-02-28T12:12:44.717Z,12.00
2019-02-28T12:15:49.255Z,12.10
2019-02-28T12:18:16.590Z,12.10
2019-02-28T12:20:44.555Z,12.20
2019-02-28T12:23:12.552Z,12.20
2019-02-28T12:25:42.770Z,12.20
2019-02-28T12:28:10.175Z,12.30
2019-02-28T12:30:40.221Z,12.40
2019-02-28T12:33:08.155Z,12.50
2019-02-28T12:35:40.285Z,12.50
2019-02-28T12:38:06.279Z,12.60
2019-02-28T12:40:34.390Z,12.70
2019-02-28T12:43:05.290Z,12.80
2019-02-28T12:45:33.790Z,12.80
2019-02-28T12:48:01.768Z,12.90
2019-02-28T12:50:30.399Z,13.00
2019-02-28T12:52:58.423Z,13.10
2019-02-28T12:55:26.394Z,13.40
2019-02-28T12:57:54.855Z,13.80
2019-02-28T13:00:26.721Z,14.20
2019-02-28T13:02:54.790Z,14.50
2019-02-28T13:05:23.083Z,14.80
2019-02-28T13:07:51.047Z,14.90
2019-02-28T13:10:19.475Z,14.90
2019-02-28T13:12:48.813Z,14.90
2019-02-28T13:15:51.721Z,15.10
2019-02-28T13:18:18.608Z,15.40
2019-02-28T13:20:46.577Z,15.60
2019-02-28T13:23:16.975Z,15.90
2019-02-28T13:25:44.687Z,16.10
2019-02-28T13:28:12.641Z,16.40
2019-02-28T13:30:49.007Z,16.60
2019-02-28T13:33:11.022Z,16.70
2019-02-28T13:35:45.228Z,16.80
2019-02-28T13:38:17.497Z,17.00
2019-02-28T13:40:44.327Z,17.20
2019-02-28T13:43:10.845Z,17.30
2019-02-28T13:45:38.743Z,17.40
2019-02-28T13:48:06.753Z,17.60
2019-02-28T13:50:34.912Z,17.80
2019-02-28T13:53:17.028Z,17.80
2019-02-28T13:55:32.950Z,17.90
2019-02-28T13:58:01.467Z,18.10
2019-02-28T14:00:29.814Z,18.10
2019-02-28T14:02:59.572Z,18.20
2019-02-28T14:05:27.525Z,18.40
2019-02-28T14:07:55.661Z,18.50
2019-02-28T14:10:24.571Z,18.60
2019-02-28T14:12:53.286Z,18.70
2019-02-28T14:16:05.584Z,18.80
2019-02-28T14:18:32.314Z,18.80
2019-02-28T14:21:03.182Z,18.90
2019-02-28T14:23:30.139Z,19.00
2019-02-28T14:25:58.070Z,19.10
2019-02-28T14:28:26.251Z,19.10
2019-02-28T14:30:54.371Z,19.20
2019-02-28T14:33:24.127Z,19.20
2019-02-28T14:35:52.219Z,19.40
2019-02-28T14:38:20.132Z,19.50
2019-02-28T14:40:49.618Z,19.50
2019-02-28T14:43:19.613Z,19.40
2019-02-28T14:45:47.597Z,19.40
2019-02-28T14:48:15.722Z,19.40
2019-02-28T14:50:43.746Z,19.40
2019-02-28T14:53:14.430Z,19.40
2019-02-28T14:55:41.459Z,19.40
2019-02-28T14:58:09.369Z,19.50
2019-02-28T15:00:38.992Z,19.50
2019-02-28T15:03:07.679Z,19.50
2019-02-28T15:05:36.479Z,19.60
2019-02-28T15:08:04.513Z,19.60
2019-02-28T15:10:34.224Z,19.50
2019-02-28T15:13:04.664Z,19.50
2019-02-28T15:16:15.585Z,19.50
2019-02-28T15:18:44.344Z,19.50
2019-02-28T15:21:11.631Z,19.30
2019-02-28T15:23:39.599Z,19.20
2019-02-28T15:26:07.500Z,19.20
2019-02-28T15:28:35.563Z,19.00
2019-02-28T15:31:05.716Z,19.10
2019-02-28T15:33:33.418Z,18.80
2019-02-28T15:36:01.431Z,18.70
2019-02-28T15:38:29.628Z,18.50
2019-02-28T15:40:58.851Z,18.50
2019-02-28T15:43:27.340Z,18.40
2019-02-28T15:45:55.228Z,18.30
2019-02-28T15:48:23.312Z,18.20
2019-02-28T15:50:52.533Z,18.30
2019-02-28T15:53:20.562Z,18.20
2019-02-28T15:55:48.590Z,18.20
2019-02-28T15:58:16.749Z,18.10
2019-02-28T16:00:45.177Z,18.00
2019-02-28T16:03:13.534Z,17.90
2019-02-28T16:05:44.190Z,17.80
2019-02-28T16:08:12.372Z,17.70
2019-02-28T16:10:40.342Z,17.60
2019-02-28T16:13:08.206Z,17.60
2019-02-28T16:16:21.399Z,17.60
2019-02-28T16:18:47.325Z,17.50
2019-02-28T16:21:15.804Z,17.40
2019-02-28T16:23:43.694Z,17.30
2019-02-28T16:26:12.088Z,17.20
2019-02-28T16:28:42.604Z,17.00
2019-02-28T16:31:10.362Z,16.90
2019-02-28T16:33:38.298Z,16.90
2019-02-28T16:36:06.290Z,16.80
2019-02-28T16:38:34.207Z,16.80
2019-02-28T16:41:02.083Z,16.70
2019-02-28T16:43:30.122Z,16.70
2019-02-28T16:45:58.034Z,16.60
2019-02-28T16:48:25.946Z,16.60
2019-02-28T16:50:56.777Z,16.50
2019-02-28T16:53:23.863Z,16.50
2019-02-28T16:55:51.828Z,16.40
2019-02-28T16:58:21.830Z,16.30
2019-02-28T17:00:49.678Z,16.30
2019-02-28T17:03:17.710Z,16.20
2019-02-28T17:05:45.795Z,16.20
2019-02-28T17:08:15.599Z,16.10
2019-02-28T17:10:44.233Z,16.10
2019-02-28T17:13:20.399Z,16.00
2019-02-28T17:16:51.476Z,16.00
2019-02-28T17:19:19.463Z,15.90
2019-02-28T17:21:48.668Z,15.90
2019-02-28T17:24:17.683Z,15.90
2019-02-28T17:27:12.294Z,15.90
2019-02-28T17:30:06.383Z,15.80
2019-02-28T17:32:35.639Z,15.80
2019-02-28T17:35:04.360Z,15.60
2019-02-28T17:37:32.534Z,15.60
2019-02-28T17:40:01.153Z,15.60
2019-02-28T17:42:29.513Z,15.60
2019-02-28T17:45:30.415Z,15.50
2019-02-28T17:49:03.784Z,15.40
2019-02-28T17:52:12.511Z,15.40
2019-02-28T17:55:24.678Z,15.40
2019-02-28T17:58:36.889Z,15.30
2019-02-28T18:01:53.509Z,15.20
2019-02-28T18:05:05.510Z,15.20
2019-02-28T18:08:27.451Z,15.00
2019-02-28T18:11:30.965Z,14.90
2019-02-28T18:14:48.752Z,14.80
2019-02-28T18:17:48.183Z,14.80
2019-02-28T18:20:56.463Z,14.70
2019-02-28T18:24:07.130Z,14.70
2019-02-28T18:26:53.459Z,14.60
2019-02-28T18:30:09.228Z,14.60
2019-02-28T18:32:39.550Z,14.60
2019-02-28T18:35:08.103Z,14.50
2019-02-28T18:37:37.996Z,14.50
2019-02-28T18:40:06.579Z,14.40
2019-02-28T18:42:35.139Z,14.40
2019-02-28T18:45:04.510Z,14.30
2019-02-28T18:47:35.903Z,14.30
2019-02-28T18:50:03.867Z,14.30
2019-02-28T18:52:32.612Z,14.40
2019-02-28T18:55:06.175Z,14.30
2019-02-28T18:57:32.554Z,14.30
2019-02-28T19:00:03.363Z,14.20
2019-02-28T19:02:32.037Z,14.20
2019-02-28T19:05:00.814Z,14.20
2019-02-28T19:07:29.529Z,14.20
2019-02-28T19:09:58.325Z,14.10
2019-02-28T19:12:27.132Z,14.10
2019-02-28T19:15:27.587Z,14.10
2019-02-28T19:17:55.285Z,14.10
2019-02-28T19:20:24.543Z,14.00
2019-02-28T19:22:53.342Z,14.00
2019-02-28T19:25:22.220Z,14.00
2019-02-28T19:27:51.470Z,14.00
2019-02-28T19:30:20.191Z,14.00
2019-02-28T19:32:49.108Z,13.90
2019-02-28T19:35:18.225Z,13.90
2019-02-28T19:37:46.914Z,13.80
2019-02-28T19:40:15.559Z,13.90
2019-02-28T19:42:43.631Z,13.90
2019-02-28T19:45:13.212Z,13.80
2019-02-28T19:47:41.448Z,13.80
2019-02-28T19:50:10.323Z,13.80
2019-02-28T19:52:39.990Z,13.80
2019-02-28T19:55:10.199Z,13.60
2019-02-28T19:57:39.601Z,13.60
2019-02-28T20:00:10.593Z,13.60
2019-02-28T20:02:39.876Z,13.70
2019-02-28T20:05:08.139Z,13.70
2019-02-28T20:07:37.743Z,13.70
2019-02-28T20:10:07.991Z,13.60
2019-02-28T20:12:38.219Z,13.60
2019-02-28T20:15:38.918Z,13.50
2019-02-28T20:18:06.633Z,13.60
2019-02-28T20:20:35.343Z,13.60
2019-02-28T20:23:04.262Z,13.60
2019-02-28T20:25:33.158Z,13.60
2019-02-28T20:28:02.049Z,13.60
2019-02-28T20:30:30.659Z,13.60
2019-02-28T20:32:59.194Z,13.50
2019-02-28T20:35:27.431Z,13.60
2019-02-28T20:37:55.684Z,13.50
2019-02-28T20:40:24.351Z,13.60
2019-02-28T20:42:52.524Z,13.60
2019-02-28T20:45:20.807Z,13.60
2019-02-28T20:47:48.944Z,13.50
2019-02-28T20:50:25.766Z,13.50
2019-02-28T20:52:55.070Z,13.50
2019-02-28T20:55:24.066Z,13.50
2019-02-28T20:57:52.299Z,13.50
2019-02-28T21:00:24.224Z,13.50
2019-02-28T21:02:52.162Z,13.50
2019-02-28T21:05:20.395Z,13.40
2019-02-28T21:07:48.495Z,13.40
2019-02-28T21:10:16.539Z,13.40
2019-02-28T21:12:44.566Z,13.40
2019-02-28T21:15:58.974Z,13.50
2019-02-28T21:18:25.010Z,13.40
2019-02-28T21:20:53.038Z,13.50
2019-02-28T21:23:20.983Z,13.50
2019-02-28T21:26:13.426Z,13.60
2019-02-28T21:28:41.282Z,13.50
2019-02-28T21:31:09.346Z,13.40
2019-02-28T21:33:37.481Z,13.50
2019-02-28T21:36:05.620Z,13.50
2019-02-28T21:38:34.218Z,13.50
2019-02-28T21:41:02.939Z,13.40
2019-02-28T21:43:30.990Z,13.40
2019-02-28T21:45:58.953Z,13.40
2019-02-28T21:48:26.830Z,13.40
2019-02-28T21:50:55.475Z,13.40
2019-02-28T21:53:24.039Z,13.40
2019-02-28T21:55:52.667Z,13.40
2019-02-28T21:58:20.642Z,13.40
2019-02-28T22:00:49.268Z,13.40
2019-02-28T22:03:17.314Z,13.30
2019-02-28T22:05:46.219Z,13.30
2019-02-28T22:08:14.354Z,13.30
2019-02-28T22:10:43.514Z,13.20
2019-02-28T22:13:11.950Z,13.20
2019-02-28T22:16:23.366Z,13.20
2019-02-28T22:18:50.488Z,13.10
2019-02-28T22:21:18.587Z,13.10
2019-02-28T22:23:48.216Z,13.00
2019-02-28T22:26:17.252Z,13.00
2019-02-28T22:28:45.882Z,13.00
2019-02-28T22:31:51.591Z,13.00
2019-02-28T22:34:31.307Z,12.90
2019-02-28T22:36:59.258Z,12.80
2019-02-28T22:39:27.150Z,12.80
2019-02-28T22:41:55.110Z,12.90
2019-02-28T22:44:23.026Z,12.80
2019-02-28T22:46:51.117Z,12.90
2019-02-28T22:49:19.022Z,12.80
2019-02-28T22:51:47.222Z,12.70
2019-02-28T22:54:15.182Z,12.70
2019-02-28T22:56:43.250Z,12.70
2019-02-28T22:59:11.130Z,12.70
2019-02-28T23:01:39.235Z,12.70
2019-02-28T23:04:07.252Z,12.70
2019-02-28T23:06:35.118Z,12.70
2019-02-28T23:09:04.475Z,12.60
2019-02-28T23:11:32.555Z,12.60
2019-02-28T23:14:00.762Z,12.60
2019-02-28T23:16:28.867Z,12.60
2019-02-28T23:18:56.875Z,12.60
2019-02-28T23:21:24.957Z,12.60
2019-02-28T23:23:52.980Z,12.70
2019-02-28T23:26:25.411Z,12.70
2019-02-28T23:29:06.938Z,12.60
2019-02-28T23:32:06.726Z,12.70
2019-02-28T23:34:37.575Z,12.60
2019-02-28T23:37:05.470Z,12.60
2019-02-28T23:39:33.664Z,12.60
2019-02-28T23:42:01.720Z,12.60
2019-02-28T23:44:29.778Z,12.60
2019-02-28T23:46:57.711Z,12.70
2019-02-28T23:49:25.741Z,12.70
2019-02-28T23:51:53.955Z,12.60
2019-02-28T23:54:22.154Z,12.60
2019-02-28T23:56:50.208Z,12.70
2019-02-28T23:59:18.362Z,12.70
